Bettles Airport
PABT : now visible

Airfield :











YOU CAN JOIN US ON...

 
LOGIN :

Register | Disclaimer

   EN    FR    IT 

 









Legend :    VFR   Marginal VFR   IFR   Intensive IFR   Very Intensive IFR
Visi :
Ceiling :
>= 8 km
>= 3000ft
5 to 8 km
1000 to 3000 ft
1500m to 5 km
500 to 1000 ft
800 to 1500m
200 to 500 ft
< 800m
< 200 ft
Symbols :   Thunderstorms  Fog  Heavy snow  Heavy precipitations  Wind > 20 kt






- Airport Elevation : 647 ft
- IATA code : BTT


PABT - Bettles

CURRENT METAR :
  • 310114Z VRB03KT 1/2SM SN FZFG OVC013 M17/M19 A2989 RMK AO2 P0000 T11671189

EXPIRED METARs :
  • 310053Z VRB03KT 1SM -SN BR FEW005 OVC018 M17/M19 A2990 RMK AO2 SLP149 P0000 T11671189
  • 302353Z 04006KT 6SM -SN BR FEW005 BKN020 OVC030 M17/M19 A2991 RMK AO2 SLP154 4/003 P0000 60000 I6000 T11671194 11167 21189 58010
  • 302325Z 03005KT 6SM -SN BR FEW003 BKN010 OVC030 M17/M19 A2992 RMK AO2 P0000 T11671194
  • 302253Z 03004KT 6SM -SN BR FEW002 OVC007 M17/M19 A2993 RMK AO2 SLP159 P0000 T11671194

TAF PABT
Valid from the 31 at 01:00 until the 01 at 00:00 UTC


310123Z 3101/3124 03005KT 6SM -SN BR BKN010 OVC030
TEMPO 3101/3103 1/2SM SN FZFG
FM310300 02003KT 1 1/2SM -SN BR OVC015
PAZA FIR / North America



MET'MAP, your aeronautical weather chart ! - Copyright ORBIFLY December 2007 - Disclaimer

ORBIFLY MET'MAP TEAM :

Programming & Development : Alexandra Zaïnal
Concept & original design : Baudouin d'Aumeries
Assistance for programming : Marc-Olivier Méhu
Technical & hardware support : Manuel Goepfert

Contact : metmap@orbifly.com




SOURCES & CREDITS :

   NOAA       Earth
Advisory